Time;durP1;ratioP1;P1;durP2;ratioP2;P2;SDS_P1;SDS_P2;PMS_P1;PMS_P2;Temp;Humidity;BMP_temperature;BMP_pressure;BME280_temperature;BME280_humidity;BME280_pressure;Samples;Min_cycle;Max_cycle;Signal;HPM_P1;HPM_P2
2021/12/03 00:03:26;;;;;;;6.00;2.55;;;;;;;0.46;78.12;99139.59;2897900;82;20987;-72
2021/12/03 00:07:28;;;;;;;4.95;2.83;;;;;;;0.46;78.54;99146.61;2923031;81;21042;-72
2021/12/03 00:11:29;;;;;;;9.85;3.85;;;;;;;0.44;78.39;99161.08;2922923;81;21005;-72
2021/12/03 00:15:32;;;;;;;6.90;2.98;;;;;;;0.51;78.11;99162.42;2898432;82;21011;-72
2021/12/03 00:19:34;;;;;;;4.80;2.40;;;;;;;0.45;78.58;99185.00;2922756;81;21018;-72
2021/12/03 00:23:36;;;;;;;7.03;3.85;;;;;;;0.41;79.06;99175.20;2918231;81;21034;-72
2021/12/03 00:27:39;;;;;;;5.55;3.50;;;;;;;0.46;79.27;99187.17;2897998;82;21296;-72
2021/12/03 00:31:41;;;;;;;8.70;3.45;;;;;;;0.40;79.67;99185.29;2918182;81;21049;-72
2021/12/03 00:35:43;;;;;;;7.08;3.02;;;;;;;0.33;80.19;99183.94;2918219;81;21062;-72
2021/12/03 00:39:44;;;;;;;9.73;3.22;;;;;;;0.27;80.60;99188.22;2897680;82;21019;-72
2021/12/03 00:43:50;;;;;;;6.80;3.80;;;;;;;0.27;80.94;99206.53;2918295;81;21014;-72
2021/12/03 00:47:51;;;;;;;5.22;3.45;;;;;;;0.27;81.32;99204.74;2868092;82;21101;-71
2021/12/03 00:51:53;;;;;;;7.50;3.72;;;;;;;0.30;81.49;99193.27;2865390;83;21007;-72
2021/12/03 00:55:55;;;;;;;10.20;3.95;;;;;;;0.20;81.80;99205.20;2897643;82;21059;-71
2021/12/03 00:59:57;;;;;;;7.80;4.15;;;;;;;0.22;82.15;99216.41;2918344;81;21038;-72
2021/12/03 01:03:59;;;;;;;6.40;2.72;;;;;;;0.22;82.52;99211.19;2917853;81;21039;-71
2021/12/03 01:08:00;;;;;;;5.25;3.12;;;;;;;0.22;82.39;99220.34;2897547;82;21055;-72
2021/12/03 01:12:03;;;;;;;7.28;3.75;;;;;;;0.26;82.47;99217.45;2918134;81;21025;-71
2021/12/03 01:16:07;;;;;;;8.55;4.53;;;;;;;0.22;82.67;99227.70;2918044;81;21081;-71
2021/12/03 01:20:11;;;;;;;4.90;3.37;;;;;;;0.16;83.12;99240.28;2897304;81;21066;-71
2021/12/03 01:24:13;;;;;;;11.33;3.60;;;;;;;0.18;83.10;99244.95;2922852;81;20990;-71
2021/12/03 01:28:16;;;;;;;5.65;3.10;;;;;;;0.08;83.60;99252.02;2923029;81;21011;-71
2021/12/03 01:32:17;;;;;;;8.23;3.42;;;;;;;0.09;83.84;99249.78;2898135;82;21038;-72
2021/12/03 01:36:19;;;;;;;6.97;3.20;;;;;;;0.07;83.90;99268.64;2923439;81;21546;-72
2021/12/03 01:40:24;;;;;;;5.58;3.33;;;;;;;0.11;83.85;99278.00;2923042;81;21033;-72
2021/12/03 01:44:25;;;;;;;7.37;3.17;;;;;;;0.04;83.95;99274.04;2898092;82;21019;-72
2021/12/03 01:48:28;;;;;;;6.85;3.25;;;;;;;0.09;83.85;99282.47;2923138;81;21061;-71
2021/12/03 01:52:30;;;;;;;5.90;4.83;;;;;;;0.12;83.85;99284.09;2923109;81;21022;-72
2021/12/03 01:56:31;;;;;;;8.13;3.70;;;;;;;0.08;83.87;99289.94;2898003;82;21047;-72
2021/12/03 02:00:41;;;;;;;5.70;3.58;;;;;;;0.10;83.85;99298.54;2922907;81;21062;-72
2021/12/03 02:04:43;;;;;;;10.82;5.40;;;;;;;0.05;84.28;99305.80;2923195;81;20974;-72
2021/12/03 02:08:45;;;;;;;7.55;3.33;;;;;;;0.02;84.61;99305.11;2898297;82;21034;-72
2021/12/03 02:12:47;;;;;;;5.35;4.17;;;;;;;0.01;84.82;99313.44;2923223;81;21068;-72
2021/12/03 02:16:49;;;;;;;7.97;3.35;;;;;;;-0.02;85.02;99314.87;2923460;81;21038;-71
2021/12/03 02:20:57;;;;;;;3.77;2.62;;;;;;;0.07;84.63;99315.71;2897829;81;21026;-72
2021/12/03 02:24:59;;;;;;;4.83;2.92;;;;;;;0.06;84.63;99332.33;2918014;81;21046;-72
2021/12/03 02:29:01;;;;;;;12.90;5.28;;;;;;;0.15;84.31;99344.06;2918081;81;20998;-72
2021/12/03 02:33:03;;;;;;;7.15;3.52;;;;;;;0.12;84.29;99343.76;2897786;82;21039;-72
2021/12/03 02:37:06;;;;;;;6.23;3.23;;;;;;;0.21;83.80;99354.19;2918282;81;21073;-72
2021/12/03 02:41:08;;;;;;;4.72;2.95;;;;;;;0.22;83.46;99345.41;2918021;81;21045;-72
2021/12/03 02:45:12;;;;;;;7.65;3.83;;;;;;;0.25;83.25;99354.88;2897554;82;21063;-72
2021/12/03 02:49:15;;;;;;;6.95;2.70;;;;;;;0.24;83.19;99362.34;2918323;81;21034;-72
2021/12/03 02:53:18;;;;;;;4.83;4.03;;;;;;;0.11;83.56;99362.99;2917972;81;21050;-72
2021/12/03 02:57:19;;;;;;;5.42;3.12;;;;;;;0.05;83.89;99379.02;2897998;82;20983;-72
2021/12/03 03:01:21;;;;;;;4.55;3.33;;;;;;;-0.09;84.55;99380.20;2918150;81;21037;-71
2021/12/03 03:05:25;;;;;;;7.28;3.50;;;;;;;-0.12;85.01;99387.73;2917866;81;21046;-72
2021/12/03 03:09:27;;;;;;;7.28;3.40;;;;;;;-0.23;85.63;99391.37;2897666;81;21055;-72
2021/12/03 03:13:29;;;;;;;4.95;3.35;;;;;;;-0.18;85.68;99392.84;2918061;81;21033;-72
2021/12/03 03:17:32;;;;;;;8.35;4.50;;;;;;;-0.17;85.69;99394.97;2918222;81;21044;-72
2021/12/03 03:21:34;;;;;;;12.43;4.60;;;;;;;-0.17;85.82;99399.75;2918040;81;21010;-72
2021/12/03 03:25:36;;;;;;;11.65;3.90;;;;;;;-0.10;85.55;99409.88;2897492;82;20999;-72
2021/12/03 03:29:39;;;;;;;5.85;3.37;;;;;;;-0.10;85.63;99404.66;2917977;81;21054;-71
2021/12/03 03:33:41;;;;;;;6.12;4.15;;;;;;;-0.01;85.44;99401.55;2917901;81;21026;-72
2021/12/03 03:37:42;;;;;;;6.67;3.30;;;;;;;0.00;85.56;99409.80;2897793;82;21034;-73
2021/12/03 03:41:44;;;;;;;5.45;3.15;;;;;;;0.11;85.75;99406.14;2917995;81;21051;-72
2021/12/03 03:45:46;;;;;;;3.70;3.05;;;;;;;0.24;85.67;99400.28;2917961;81;21018;-72
2021/12/03 03:49:48;;;;;;;5.60;3.60;;;;;;;0.41;85.05;99396.75;2897213;82;21078;-72
2021/12/03 03:53:49;;;;;;;8.70;5.78;;;;;;;0.56;84.07;99400.30;2918257;81;21088;-72
2021/12/03 03:57:55;;;;;;;11.70;5.87;;;;;;;0.63;83.17;99405.59;2918046;81;21002;-72
2021/12/03 04:01:57;;;;;;;12.07;6.27;;;;;;;0.64;82.59;99402.05;2898151;82;21046;-72
2021/12/03 04:05:59;;;;;;;3.77;3.12;;;;;;;0.65;82.43;99402.42;2918298;81;21047;-72
2021/12/03 04:10:01;;;;;;;7.25;4.30;;;;;;;0.64;82.11;99405.11;2918235;81;21044;-72
2021/12/03 04:14:04;;;;;;;5.05;4.42;;;;;;;0.64;82.09;99412.52;2897779;82;21055;-72
2021/12/03 04:18:06;;;;;;;8.40;4.30;;;;;;;0.65;81.67;99408.11;2918283;81;21003;-72
2021/12/03 04:22:07;;;;;;;7.62;5.22;;;;;;;0.63;81.58;99406.90;2920248;81;21046;-72
2021/12/03 04:26:09;;;;;;;3.77;3.47;;;;;;;0.58;81.63;99419.38;2898043;82;21056;-72
2021/12/03 04:30:20;;;;;;;5.50;4.05;;;;;;;0.47;82.04;99411.27;2923130;81;21077;-72
2021/12/03 04:34:21;;;;;;;13.22;4.47;;;;;;;0.41;82.53;99419.84;2923167;81;21042;-72
2021/12/03 04:38:23;;;;;;;7.90;4.08;;;;;;;0.36;82.61;99416.61;2898413;82;21068;-72
2021/12/03 04:42:25;;;;;;;11.25;4.78;;;;;;;0.34;82.30;99421.08;2923026;81;21037;-72
2021/12/03 04:46:26;;;;;;;12.82;6.22;;;;;;;0.25;82.32;99422.89;2923436;81;20963;-72
2021/12/03 04:50:32;;;;;;;9.43;5.67;;;;;;;0.24;82.55;99422.52;2897720;82;21078;-72
2021/12/03 04:54:34;;;;;;;7.95;4.65;;;;;;;0.19;82.77;99419.27;2923515;81;21042;-72
2021/12/03 04:58:37;;;;;;;7.70;3.90;;;;;;;0.11;83.16;99430.16;2923165;81;21017;-72
2021/12/03 05:02:39;;;;;;;14.63;6.20;;;;;;;0.12;83.02;99436.61;2898469;82;21055;-72
2021/12/03 05:10:46;;;;;;;7.50;4.87;;;;;;;0.13;83.38;99424.39;2866132;81;21007;-72
2021/12/03 05:14:48;;;;;;;10.10;5.58;;;;;;;0.14;83.67;99431.31;2898347;82;21011;-72
2021/12/03 05:18:50;;;;;;;9.93;5.92;;;;;;;0.17;83.60;99438.98;2923074;81;22369;-71
2021/12/03 05:22:53;;;;;;;9.68;6.08;;;;;;;0.21;83.53;99441.81;2920325;81;21010;-72
2021/12/03 05:26:55;;;;;;;12.00;6.30;;;;;;;0.23;83.61;99448.29;2897749;82;21054;-72
2021/12/03 05:30:57;;;;;;;13.83;5.83;;;;;;;0.28;83.46;99458.04;2918001;81;21026;-72
2021/12/03 05:34:59;;;;;;;12.65;7.25;;;;;;;0.30;83.17;99462.73;2918231;81;21002;-70
2021/12/03 05:39:01;;;;;;;16.10;9.40;;;;;;;0.34;82.85;99468.17;2897929;82;20980;-71
2021/12/03 05:43:03;;;;;;;11.65;6.40;;;;;;;0.29;82.86;99481.97;2918024;81;21066;-72
2021/12/03 05:47:05;;;;;;;14.15;6.35;;;;;;;0.31;82.69;99480.11;2917961;81;21062;-71
2021/12/03 05:51:07;;;;;;;13.25;5.22;;;;;;;0.26;82.73;99482.13;2898153;82;21610;-72
2021/12/03 05:55:11;;;;;;;6.67;3.98;;;;;;;0.20;82.71;99485.08;2918189;81;21068;-71
2021/12/03 05:59:13;;;;;;;7.13;3.97;;;;;;;0.12;82.80;99490.22;2917975;81;21026;-72
2021/12/03 06:03:15;;;;;;;9.83;3.98;;;;;;;0.03;83.26;99494.62;2897546;82;20991;-72
2021/12/03 06:07:16;;;;;;;10.90;4.62;;;;;;;-0.01;83.59;99506.14;2917762;81;21578;-72
2021/12/03 06:11:18;;;;;;;13.22;6.83;;;;;;;0.01;83.70;99513.92;2917984;81;20995;-72
2021/12/03 06:15:20;;;;;;;8.40;3.55;;;;;;;-0.05;83.72;99518.99;2897328;82;21586;-72
2021/12/03 06:19:22;;;;;;;13.68;4.08;;;;;;;-0.08;83.78;99525.69;2918162;81;21220;-72
2021/12/03 06:23:24;;;;;;;21.55;8.13;;;;;;;-0.11;83.82;99531.08;2916103;81;21058;-72
2021/12/03 06:27:25;;;;;;;13.90;6.00;;;;;;;-0.14;83.71;99518.98;2872245;83;21035;-72
2021/12/03 06:31:28;;;;;;;9.40;7.05;;;;;;;-0.17;83.71;99523.93;2865268;83;21091;-72
2021/12/03 06:35:29;;;;;;;8.53;5.28;;;;;;;-0.15;83.50;99526.45;2838712;83;21074;-72
2021/12/03 06:39:31;;;;;;;7.72;4.67;;;;;;;-0.10;83.14;99536.20;2840316;84;21027;-72
2021/12/03 06:43:34;;;;;;;17.00;6.12;;;;;;;-0.08;82.76;99543.98;2907687;82;21034;-71
2021/12/03 06:47:36;;;;;;;11.20;5.67;;;;;;;-0.08;82.32;99544.85;2886137;82;21101;-72
2021/12/03 06:51:42;;;;;;;13.78;5.92;;;;;;;-0.04;81.80;99551.61;2916023;81;21082;-72
2021/12/03 06:55:46;;;;;;;13.45;5.20;;;;;;;0.02;81.62;99563.55;2915166;81;21089;-72
2021/12/03 06:59:44;;;;;;;5.78;3.98;;;;;;;0.09;81.19;99568.84;2915285;81;21057;-71
2021/12/03 07:03:46;;;;;;;8.20;3.60;;;;;;;0.14;80.94;99573.38;2915864;81;21054;-71
2021/12/03 07:07:49;;;;;;;8.25;4.78;;;;;;;0.18;80.34;99578.45;2915982;81;20999;-71
2021/12/03 07:11:51;;;;;;;15.72;4.60;;;;;;;0.24;79.85;99573.76;2916118;81;21026;-72
2021/12/03 07:15:52;;;;;;;6.17;4.33;;;;;;;0.27;79.55;99581.45;2916112;81;21006;-71
2021/12/03 07:19:57;;;;;;;4.65;4.25;;;;;;;0.36;79.13;99582.75;2915950;81;21038;-71
2021/12/03 07:23:58;;;;;;;8.63;3.45;;;;;;;0.35;78.16;99584.16;2900996;81;21004;-72
2021/12/03 07:27:59;;;;;;;5.85;3.45;;;;;;;0.47;78.24;99585.30;2895104;82;21012;-71
2021/12/03 07:32:01;;;;;;;3.55;2.77;;;;;;;0.50;77.98;99587.75;2894988;82;21002;-71
2021/12/03 07:36:05;;;;;;;5.37;3.77;;;;;;;0.60;77.29;99593.36;2894913;82;21023;-71
2021/12/03 07:40:10;;;;;;;8.78;3.55;;;;;;;0.68;76.92;99593.34;2894978;82;21019;-71
2021/12/03 07:44:11;;;;;;;6.40;3.02;;;;;;;0.71;76.38;99597.11;2894750;82;21054;-71
2021/12/03 07:48:13;;;;;;;5.85;2.58;;;;;;;0.88;75.17;99600.62;2894962;82;21067;-71
2021/12/03 07:52:16;;;;;;;6.40;3.33;;;;;;;1.01;75.04;99599.50;2894806;82;21031;-71
2021/12/03 07:56:18;;;;;;;6.22;2.17;;;;;;;1.11;73.82;99610.34;2894753;82;21559;-71
2021/12/03 08:00:20;;;;;;;5.08;2.25;;;;;;;1.24;73.85;99604.83;2894870;82;21030;-71
2021/12/03 08:04:21;;;;;;;7.83;2.52;;;;;;;1.34;72.68;99610.42;2894717;82;21067;-71
2021/12/03 08:08:25;;;;;;;5.53;2.35;;;;;;;1.50;71.25;99603.86;2826174;84;21102;-71
2021/12/03 08:12:26;;;;;;;2.77;1.52;;;;;;;1.66;70.48;99599.09;2898351;82;21090;-71
2021/12/03 08:16:28;;;;;;;2.90;1.50;;;;;;;1.78;69.20;99583.98;2898323;82;21042;-71
2021/12/03 08:20:30;;;;;;;2.58;1.95;;;;;;;1.95;69.61;99591.34;2898301;82;20999;-72
2021/12/03 08:24:32;;;;;;;2.33;1.87;;;;;;;2.06;68.83;99585.47;2891399;81;21049;-71
2021/12/03 08:28:34;;;;;;;2.80;2.00;;;;;;;2.20;68.08;99593.88;2922838;81;20989;-72
2021/12/03 08:32:36;;;;;;;4.62;1.72;;;;;;;2.37;68.12;99598.13;2891305;81;21015;-71
2021/12/03 08:36:38;;;;;;;5.25;3.83;;;;;;;2.49;68.46;99596.11;2882785;82;21033;-71
2021/12/03 08:40:40;;;;;;;3.85;2.42;;;;;;;2.57;67.15;99596.97;2870650;83;21041;-71
2021/12/03 08:44:41;;;;;;;4.85;2.62;;;;;;;2.65;66.98;99598.65;2882691;82;21081;-72
2021/12/03 08:48:46;;;;;;;9.35;4.37;;;;;;;2.70;66.08;99611.03;2882426;82;21042;-71
2021/12/03 08:56:49;;;;;;;6.03;4.08;;;;;;;2.97;65.97;99627.84;2882685;82;20994;-71
2021/12/03 09:00:50;;;;;;;6.00;4.33;;;;;;;3.11;66.36;99632.25;2870484;83;21003;-71
2021/12/03 09:04:52;;;;;;;5.65;2.80;;;;;;;3.19;65.20;99630.47;2882474;82;21057;-71
2021/12/03 09:08:54;;;;;;;5.20;3.45;;;;;;;3.23;65.71;99629.34;2882356;82;21466;-71
2021/12/03 09:12:56;;;;;;;7.28;3.55;;;;;;;3.34;65.53;99635.23;2870513;83;21035;-71
2021/12/03 09:17:20;;;;;;;5.37;2.92;;;;;;;3.34;65.46;99629.98;2882703;82;20975;-71
2021/12/03 09:21:13;;;;;;;4.67;2.60;;;;;;;3.31;64.19;99623.16;2863383;83;21086;-73
2021/12/03 09:25:16;;;;;;;5.40;3.62;;;;;;;3.43;65.80;99620.22;2868412;82;21082;-73
2021/12/03 09:29:24;;;;;;;6.40;3.10;;;;;;;3.48;64.69;99607.63;2824922;83;21102;-72
2021/12/03 09:33:26;;;;;;;9.30;4.22;;;;;;;3.50;64.67;99611.48;2866683;83;21011;-71
2021/12/03 09:37:25;;;;;;;8.20;3.52;;;;;;;3.59;65.63;99617.95;2824780;84;21059;-70
2021/12/03 09:41:27;;;;;;;4.55;3.08;;;;;;;3.66;64.91;99620.09;2867754;83;21053;-70
2021/12/03 09:45:30;;;;;;;8.65;2.95;;;;;;;3.76;65.24;99609.83;2867851;83;21062;-70
2021/12/03 09:49:37;;;;;;;4.35;2.25;;;;;;;3.79;63.46;99613.56;2805537;84;21496;-70
2021/12/03 10:02:27;;;;;;;2.95;2.08;;;;;;;4.02;62.76;99595.44;2819345;84;21093;-70
2021/12/03 10:19:35;;;;;;;6.30;2.80;;;;;;;4.28;61.36;99596.80;2819524;84;21046;-66
2021/12/03 10:53:56;;;;;;;2.45;2.25;;;;;;;4.83;59.47;99600.59;2826396;84;21054;-73
2021/12/03 11:51:00;;;;;;;1.90;1.72;;;;;;;4.96;57.73;99595.31;2884113;82;21041;-73
2021/12/03 12:13:48;;;;;;;3.08;2.10;;;;;;;4.89;56.11;99595.38;2884871;82;21076;-72
2021/12/03 12:43:18;;;;;;;3.30;1.95;;;;;;;4.99;54.14;99597.27;2736235;87;21066;-73
2021/12/03 14:48:38;;;;;;;4.33;2.30;;;;;;;3.43;56.65;99671.50;2910934;82;21066;-70
2021/12/03 14:52:43;;;;;;;5.50;2.30;;;;;;;3.31;56.84;99676.19;2908474;81;21038;-70
2021/12/03 14:56:40;;;;;;;5.42;3.08;;;;;;;3.23;57.34;99669.62;2910981;81;21046;-70
2021/12/03 15:05:16;;;;;;;4.83;3.10;;;;;;;3.09;57.29;99670.92;2914342;81;21069;-70
2021/12/03 15:09:13;;;;;;;16.00;9.85;;;;;;;3.03;56.75;99680.02;2912216;81;21058;-70
2021/12/03 15:26:02;;;;;;;11.40;6.30;;;;;;;2.83;57.27;99696.98;2909025;81;21050;-70
2021/12/03 16:04:46;;;;;;;9.20;4.85;;;;;;;2.27;58.88;99696.25;2838307;84;21058;-71
2021/12/03 16:08:49;;;;;;;9.05;4.03;;;;;;;2.21;59.04;99686.11;2838198;84;21015;-72
2021/12/03 16:17:23;;;;;;;7.05;4.42;;;;;;;2.03;60.00;99694.08;2838284;84;21062;-71
2021/12/03 16:51:34;;;;;;;11.85;8.90;;;;;;;2.09;61.04;99697.66;2905938;82;20971;-72
2021/12/03 16:55:33;;;;;;;12.45;8.08;;;;;;;1.96;61.40;99699.27;2903613;82;21027;-71
2021/12/03 16:59:35;;;;;;;18.27;8.30;;;;;;;1.85;62.54;99705.97;2879639;82;21105;-71
2021/12/03 17:25:20;;;;;;;26.10;16.60;;;;;;;1.78;64.56;99691.51;2820683;84;21098;-71
2021/12/03 18:12:24;;;;;;;17.00;10.70;;;;;;;2.02;63.51;99685.83;2855604;83;21023;-71
2021/12/03 18:51:03;;;;;;;14.45;8.45;;;;;;;1.92;65.32;99667.13;2894324;81;21026;-71
2021/12/03 18:55:02;;;;;;;19.02;10.38;;;;;;;1.97;65.52;99678.20;2905029;81;21020;-71
2021/12/03 18:59:05;;;;;;;10.53;9.33;;;;;;;1.99;65.65;99675.52;2900354;81;21044;-72
2021/12/03 19:03:22;;;;;;;21.62;14.55;;;;;;;1.98;65.52;99673.82;2883664;82;22519;-71
2021/12/03 19:07:19;;;;;;;38.10;19.20;;;;;;;1.97;65.15;99669.02;2879798;82;21071;-70
2021/12/03 19:11:33;;;;;;;31.23;19.75;;;;;;;1.92;64.83;99667.13;2882457;82;21491;-71
2021/12/03 19:15:29;;;;;;;17.48;11.90;;;;;;;1.89;64.95;99666.45;2883020;82;21107;-71
2021/12/03 19:19:35;;;;;;;17.87;8.48;;;;;;;1.84;65.00;99664.94;2887729;82;21055;-71
2021/12/03 19:23:35;;;;;;;11.70;8.95;;;;;;;1.82;65.25;99663.31;2907927;81;21098;-71
2021/12/03 19:27:38;;;;;;;11.75;7.40;;;;;;;1.75;66.04;99665.42;2894888;82;21094;-72
2021/12/03 19:31:41;;;;;;;10.48;7.20;;;;;;;1.59;67.22;99661.98;2878343;82;21087;-71
2021/12/03 19:35:43;;;;;;;11.83;7.17;;;;;;;1.52;67.31;99660.98;2862402;83;20966;-71
2021/12/03 19:39:45;;;;;;;12.68;7.47;;;;;;;1.53;67.30;99652.19;2867191;83;21040;-71
2021/12/03 19:43:53;;;;;;;10.70;7.10;;;;;;;1.50;66.89;99643.66;2867396;83;21012;-71
2021/12/03 19:47:58;;;;;;;11.43;8.10;;;;;;;1.54;66.61;99645.19;2866691;83;21044;-71
2021/12/03 19:52:00;;;;;;;8.73;6.87;;;;;;;1.51;66.29;99634.87;2866453;82;21079;-71
2021/12/03 19:56:00;;;;;;;17.10;8.55;;;;;;;1.58;65.81;99631.45;2874923;81;21117;-71
2021/12/03 20:00:06;;;;;;;14.75;8.80;;;;;;;1.56;65.85;99628.91;2907760;81;20988;-71
2021/12/03 20:04:10;;;;;;;16.85;10.63;;;;;;;1.54;66.18;99618.48;2869175;82;21005;-71
2021/12/03 20:08:13;;;;;;;24.92;14.87;;;;;;;1.46;65.97;99614.59;2924141;81;21044;-71
2021/12/03 20:12:19;;;;;;;28.62;17.02;;;;;;;1.47;65.77;99606.66;2927617;81;21410;-71
2021/12/03 20:20:20;;;;;;;23.90;13.88;;;;;;;1.41;65.95;99580.80;2880785;82;20976;-71
2021/12/03 20:24:50;;;;;;;13.18;10.85;;;;;;;1.40;65.90;99568.63;2892180;81;21032;-71
2021/12/03 20:28:40;;;;;;;24.98;12.23;;;;;;;1.33;66.06;99565.94;2870757;81;21015;-71
2021/12/03 20:33:03;;;;;;;18.30;9.93;;;;;;;1.32;66.41;99557.25;2865220;83;21073;-71
2021/12/03 20:37:04;;;;;;;13.03;9.90;;;;;;;1.37;67.00;99546.48;2862199;81;21058;-72
2021/12/03 20:41:04;;;;;;;20.55;8.65;;;;;;;1.43;67.03;99540.93;2824004;84;21062;-72
2021/12/03 20:58:05;;;;;;;12.07;9.53;;;;;;;1.38;67.57;99508.90;2861585;81;21622;-71
2021/12/03 21:10:28;;;;;;;9.90;7.55;;;;;;;1.51;68.60;99504.63;2872017;83;20955;-71
2021/12/03 21:14:32;;;;;;;19.62;10.20;;;;;;;1.54;69.03;99504.45;2872022;83;20987;-72
2021/12/03 21:18:45;;;;;;;12.95;8.55;;;;;;;1.65;68.80;99500.39;2872053;83;21491;-71
2021/12/03 21:22:47;;;;;;;12.73;8.98;;;;;;;1.71;69.17;99499.58;2872790;82;21636;-72
2021/12/03 21:26:47;;;;;;;12.95;8.55;;;;;;;1.76;69.31;99500.59;2874011;82;21065;-72
2021/12/03 21:30:59;;;;;;;13.08;7.37;;;;;;;1.87;69.46;99489.96;2852203;82;21002;-72
2021/12/03 21:39:22;;;;;;;11.75;8.53;;;;;;;2.00;69.56;99498.81;2877058;82;21026;-72
2021/12/03 21:43:22;;;;;;;10.78;7.15;;;;;;;2.05;69.68;99496.75;2875735;82;21566;-72
2021/12/03 21:47:24;;;;;;;9.05;6.78;;;;;;;2.10;69.66;99490.76;2877082;82;20990;-72
2021/12/03 21:51:26;;;;;;;9.05;7.62;;;;;;;2.13;69.75;99493.19;2876942;82;21082;-72
2021/12/03 21:55:28;;;;;;;11.75;8.35;;;;;;;2.11;69.58;99478.02;2870969;82;21656;-72
2021/12/03 21:59:31;;;;;;;11.03;8.23;;;;;;;2.09;69.54;99469.39;2844340;83;21027;-72
2021/12/03 22:03:33;;;;;;;11.25;7.25;;;;;;;2.06;69.54;99467.41;2844458;83;20983;-72
2021/12/03 22:07:35;;;;;;;10.80;7.72;;;;;;;2.04;69.57;99454.41;2844409;83;21031;-72
2021/12/03 22:11:36;;;;;;;12.40;7.30;;;;;;;2.11;69.66;99457.02;2844587;83;21007;-72
2021/12/03 22:15:38;;;;;;;10.82;6.55;;;;;;;2.14;69.62;99458.63;2844395;83;21011;-72
2021/12/03 22:19:39;;;;;;;12.53;8.63;;;;;;;2.16;69.83;99457.20;2844553;83;21026;-72
2021/12/03 22:23:43;;;;;;;14.53;6.83;;;;;;;2.19;69.70;99460.50;2844732;83;20991;-72
2021/12/03 22:27:45;;;;;;;8.75;7.80;;;;;;;2.21;69.63;99454.69;2844710;83;21042;-72
2021/12/03 22:31:49;;;;;;;12.18;7.92;;;;;;;2.22;69.72;99443.73;2844701;83;21535;-72
2021/12/03 22:35:51;;;;;;;11.33;7.42;;;;;;;2.27;69.55;99445.61;2844854;83;20967;-72
2021/12/03 22:39:52;;;;;;;17.42;8.23;;;;;;;2.24;69.48;99437.44;2844590;83;20999;-72
2021/12/03 22:43:54;;;;;;;16.73;8.83;;;;;;;2.19;69.74;99432.13;2845056;83;20987;-72
2021/12/03 22:48:00;;;;;;;12.10;7.87;;;;;;;2.13;69.65;99418.41;2844773;83;20995;-72
2021/12/03 22:52:09;;;;;;;11.22;8.20;;;;;;;2.04;69.86;99415.50;2844612;83;21035;-72
2021/12/03 22:56:10;;;;;;;15.28;8.88;;;;;;;1.95;70.10;99414.28;2854514;82;21094;-74
2021/12/03 23:00:33;;;;;;;11.73;7.72;;;;;;;1.93;70.42;99404.34;2845919;83;21534;-72
2021/12/03 23:04:40;;;;;;;11.38;7.95;;;;;;;1.92;70.41;99400.04;2868714;83;21065;-72
2021/12/03 23:08:42;;;;;;;12.55;8.65;;;;;;;1.79;70.47;99388.99;2868786;83;21006;-72
2021/12/03 23:12:44;;;;;;;11.28;7.60;;;;;;;1.83;70.40;99389.17;2877162;82;21530;-71
2021/12/03 23:16:46;;;;;;;10.90;8.08;;;;;;;1.79;70.68;99372.41;2877194;82;21492;-72
2021/12/03 23:20:52;;;;;;;15.90;8.48;;;;;;;1.77;70.63;99364.64;2877109;82;21006;-72
2021/12/03 23:24:51;;;;;;;14.68;9.93;;;;;;;1.78;70.51;99357.15;2877043;82;21018;-72
2021/12/03 23:28:53;;;;;;;13.03;10.58;;;;;;;1.83;70.17;99344.59;2877700;82;21018;-72
2021/12/03 23:32:57;;;;;;;13.18;9.65;;;;;;;1.91;70.19;99340.66;2877443;82;20975;-73
2021/12/03 23:36:59;;;;;;;15.93;11.45;;;;;;;1.99;69.97;99344.98;2869065;83;20991;-72
2021/12/03 23:41:02;;;;;;;15.98;10.03;;;;;;;2.02;69.86;99346.55;2868569;83;20979;-72
2021/12/03 23:45:05;;;;;;;14.23;8.85;;;;;;;2.10;69.70;99333.34;2869038;83;20959;-72
2021/12/03 23:49:07;;;;;;;13.80;8.35;;;;;;;2.18;69.73;99326.79;2877646;82;21528;-72
2021/12/03 23:53:08;;;;;;;13.70;9.05;;;;;;;2.23;69.42;99315.53;2877575;82;21006;-72
2021/12/03 23:57:11;;;;;;;17.40;9.23;;;;;;;2.29;69.44;99308.57;2862238;82;21090;-72
